Time;durP1;ratioP1;P1;durP2;ratioP2;P2;SDS_P1;SDS_P2;PMS_P1;PMS_P2;Temp;Humidity;BMP_temperature;BMP_pressure;BME280_temperature;BME280_humidity;BME280_pressure;Samples;Min_cycle;Max_cycle;Signal;HPM_P1;HPM_P2
2020/12/27 00:00:07;;;;;;;20.83;7.78;;;;;;;-3.18;86.45;98935.81;4917119;29;20024;-74
2020/12/27 00:02:32;;;;;;;11.70;7.07;;;;;;;-3.24;87.01;98927.97;4917611;29;20031;-74
2020/12/27 00:04:58;;;;;;;13.65;7.35;;;;;;;-3.11;87.62;98932.69;4917340;29;20036;-74
2020/12/27 00:07:23;;;;;;;12.18;7.68;;;;;;;-3.16;87.56;98924.94;4917847;29;20020;-74
2020/12/27 00:09:48;;;;;;;9.93;6.85;;;;;;;-3.07;86.88;98913.41;4917790;29;20481;-74
2020/12/27 00:12:14;;;;;;;13.07;7.75;;;;;;;-3.16;86.80;98909.72;4917851;29;20020;-74
2020/12/27 00:14:40;;;;;;;18.30;7.82;;;;;;;-3.13;85.24;98901.38;4917616;29;20028;-74
2020/12/27 00:17:07;;;;;;;14.02;8.18;;;;;;;-3.11;86.75;98902.28;4917788;29;20036;-74
2020/12/27 00:19:32;;;;;;;13.27;7.90;;;;;;;-3.18;86.18;98900.34;4917531;29;20024;-74
2020/12/27 00:21:58;;;;;;;16.83;8.75;;;;;;;-3.24;86.71;98898.44;4917652;29;20490;-74
2020/12/27 00:24:24;;;;;;;14.43;8.35;;;;;;;-3.18;86.24;98890.22;4917629;29;20111;-74
2020/12/27 00:26:50;;;;;;;13.88;7.85;;;;;;;-3.07;85.25;98883.00;4917587;29;20036;-74
2020/12/27 00:29:15;;;;;;;15.52;7.55;;;;;;;-3.20;86.59;98869.00;4917335;29;20040;-74
2020/12/27 00:31:40;;;;;;;14.73;7.85;;;;;;;-3.38;85.54;98862.47;4917435;29;20031;-74
2020/12/27 00:34:06;;;;;;;15.30;6.10;;;;;;;-3.45;85.45;98845.28;4917313;29;20032;-74
2020/12/27 00:36:31;;;;;;;10.48;6.05;;;;;;;-3.55;86.43;98837.28;4917603;29;20028;-74
2020/12/27 00:38:56;;;;;;;18.05;6.25;;;;;;;-3.54;86.50;98829.72;4917353;29;20028;-74
2020/12/27 00:41:23;;;;;;;10.27;7.00;;;;;;;-3.60;86.94;98828.66;4917211;29;20498;-74
2020/12/27 00:43:49;;;;;;;11.95;7.43;;;;;;;-3.72;87.84;98821.47;4917211;29;20051;-74
2020/12/27 00:46:14;;;;;;;12.95;7.70;;;;;;;-3.77;88.48;98820.38;4917146;29;20091;-74
2020/12/27 00:48:40;;;;;;;12.63;7.38;;;;;;;-3.80;88.46;98815.22;4916362;29;20028;-74
2020/12/27 00:51:05;;;;;;;15.40;9.02;;;;;;;-3.83;88.86;98804.97;4917180;29;20035;-75
2020/12/27 00:53:30;;;;;;;17.33;8.73;;;;;;;-3.78;88.75;98796.75;4917161;29;20024;-74
2020/12/27 00:55:56;;;;;;;16.98;9.38;;;;;;;-3.82;88.71;98792.41;4916897;29;20048;-74
2020/12/27 00:58:21;;;;;;;22.90;11.07;;;;;;;-3.85;88.47;98793.94;4917145;29;20182;-74
2020/12/27 08:02:28;;;;;;;10.80;7.28;;;;;;;-3.33;83.90;97800.59;5008750;23;20505;-73
2020/12/27 08:04:53;;;;;;;12.93;7.75;;;;;;;-3.21;83.10;97796.63;4936888;29;20114;-73
2020/12/27 08:07:20;;;;;;;11.80;7.78;;;;;;;-3.27;83.01;97791.44;4937070;29;20366;-74
2020/12/27 08:09:45;;;;;;;14.52;8.02;;;;;;;-3.11;82.91;97787.53;4936690;29;20023;-73
2020/12/27 08:12:11;;;;;;;14.73;8.98;;;;;;;-3.17;82.81;97787.41;4936823;29;20043;-74
2020/12/27 08:14:36;;;;;;;14.80;8.88;;;;;;;-3.10;84.48;97784.16;4937190;29;20035;-71
2020/12/27 08:17:01;;;;;;;16.23;10.07;;;;;;;-2.96;82.55;97785.28;4936857;29;20389;-71
2020/12/27 08:19:27;;;;;;;16.80;10.95;;;;;;;-2.92;81.81;97773.53;4936684;29;20578;-70
2020/12/27 08:21:59;;;;;;;18.85;10.50;;;;;;;-3.00;81.42;97760.69;4936769;29;20032;-70
2020/12/27 08:24:24;;;;;;;15.57;9.70;;;;;;;-3.00;82.52;97755.63;4936580;29;20031;-71
2020/12/27 08:26:49;;;;;;;20.38;10.35;;;;;;;-2.70;82.34;97750.28;4936745;29;20034;-71
2020/12/27 08:29:20;;;;;;;19.35;10.23;;;;;;;-2.67;80.83;97752.00;4936428;29;20024;-71
2020/12/27 08:31:47;;;;;;;19.50;10.88;;;;;;;-2.59;84.92;97755.53;4936445;29;20031;-71
2020/12/27 08:34:17;;;;;;;17.08;9.55;;;;;;;-2.71;80.04;97747.72;4936417;29;20511;-71
2020/12/27 08:36:50;;;;;;;16.90;10.77;;;;;;;-2.69;79.91;97725.78;4936535;29;20028;-71
2020/12/27 08:39:34;;;;;;;17.15;10.75;;;;;;;-2.72;80.13;97720.66;4936285;29;20075;-71
2020/12/27 08:42:02;;;;;;;15.63;9.88;;;;;;;-2.69;80.06;97708.91;4936316;29;20035;-71
2020/12/27 08:44:46;;;;;;;13.80;9.10;;;;;;;-2.66;80.46;97705.53;4936184;29;20115;-71
2020/12/27 08:47:40;;;;;;;13.10;8.68;;;;;;;-2.39;81.06;97720.38;4936480;29;20040;-71
2020/12/27 08:50:13;;;;;;;13.30;8.52;;;;;;;-2.14;81.35;97711.44;4930243;29;20055;-71
2020/12/27 08:52:39;;;;;;;14.23;8.45;;;;;;;-1.97;80.78;97720.16;4935900;29;20034;-71
2020/12/27 08:55:08;;;;;;;12.50;7.70;;;;;;;-1.76;77.99;97719.59;4935956;29;20485;-71
2020/12/27 08:57:34;;;;;;;;;;;;;;;-1.73;78.31;97724.72;4936718;29;20023;-71
2020/12/27 09:00:10;;;;;;;15.13;9.73;;;;;;;-1.81;78.05;97706.84;4936080;29;19925;-71
2020/12/27 09:02:37;;;;;;;15.35;9.80;;;;;;;-1.85;77.54;97699.16;4935827;29;20485;-71
2020/12/27 09:05:10;;;;;;;13.50;9.32;;;;;;;-1.74;76.99;97704.38;4935929;29;20032;-71
2020/12/27 09:07:41;;;;;;;17.02;9.57;;;;;;;-1.69;77.28;97690.03;4935708;29;20122;-71
2020/12/27 09:10:13;;;;;;;12.52;9.30;;;;;;;-1.84;77.66;97691.59;4935166;29;20079;-71
2020/12/27 09:12:54;;;;;;;14.65;9.77;;;;;;;-1.85;78.16;97686.47;4935731;29;20500;-71
2020/12/27 09:15:30;;;;;;;15.48;8.68;;;;;;;-1.78;77.66;97679.81;4935610;29;20504;-71
2020/12/27 09:18:07;;;;;;;18.67;10.38;;;;;;;-1.56;78.56;97674.13;4935767;29;20019;-71
2020/12/27 09:20:35;;;;;;;19.00;11.70;;;;;;;-1.46;77.70;97663.25;4935462;29;20027;-71
2020/12/27 09:23:11;;;;;;;19.63;11.63;;;;;;;-1.34;77.63;97648.16;4935636;29;20079;-71
2020/12/27 09:25:37;;;;;;;20.70;12.57;;;;;;;-1.06;77.28;97643.34;4935579;29;20035;-71
2020/12/27 09:28:11;;;;;;;19.85;12.30;;;;;;;-0.81;76.21;97624.94;4935492;29;20023;-71
2020/12/27 09:30:37;;;;;;;23.33;12.30;;;;;;;-0.66;75.19;97625.88;4935296;29;20031;-71
2020/12/27 09:33:02;;;;;;;21.17;12.27;;;;;;;-0.67;74.64;97616.56;4935547;29;20099;-71
2020/12/27 09:35:29;;;;;;;24.08;11.35;;;;;;;-0.94;75.74;97605.31;4934121;29;20461;-71
2020/12/27 09:37:54;;;;;;;15.48;9.85;;;;;;;-0.79;73.97;97602.88;4935393;29;20035;-72
2020/12/27 09:40:20;;;;;;;17.13;10.13;;;;;;;-0.50;74.79;97589.53;4935096;29;20031;-72
2020/12/27 09:42:47;;;;;;;19.15;11.05;;;;;;;-0.27;72.47;97572.72;4935205;29;20027;-71
2020/12/27 09:45:18;;;;;;;20.27;8.25;;;;;;;-0.36;70.69;97576.91;4935011;29;20039;-72
2020/12/27 09:47:56;;;;;;;16.92;10.70;;;;;;;0.13;73.02;97557.59;4935119;29;20485;-71
2020/12/27 09:50:37;;;;;;;16.33;10.23;;;;;;;0.10;73.41;97551.66;4935043;29;20030;-72
2020/12/27 09:53:04;;;;;;;17.08;10.38;;;;;;;0.32;73.38;97537.28;4935185;29;20035;-71
2020/12/27 09:55:30;;;;;;;24.45;14.02;;;;;;;0.56;70.21;97532.22;4934961;29;20031;-71
2020/12/27 09:57:56;;;;;;;21.90;13.68;;;;;;;0.33;71.83;97528.78;4935046;29;20028;-71
2020/12/27 10:00:22;;;;;;;19.60;10.38;;;;;;;0.41;69.71;97516.94;4934698;29;20028;-72
2020/12/27 10:02:48;;;;;;;16.38;10.30;;;;;;;1.23;67.30;97511.81;4934831;29;20024;-71
2020/12/27 10:05:14;;;;;;;17.48;10.50;;;;;;;1.60;67.50;97501.53;4934940;29;20028;-72
2020/12/27 10:07:40;;;;;;;14.10;8.75;;;;;;;1.66;65.46;97500.66;4934772;29;20027;-72
2020/12/27 10:10:08;;;;;;;9.88;7.07;;;;;;;2.03;61.38;97480.91;4934949;29;20042;-72
2020/12/27 10:12:33;;;;;;;12.48;8.23;;;;;;;2.16;62.62;97474.88;4933756;29;20067;-72
2020/12/27 10:14:59;;;;;;;19.17;9.90;;;;;;;2.21;60.88;97480.81;4934818;29;20484;-72
2020/12/27 10:17:25;;;;;;;20.00;10.65;;;;;;;2.17;60.59;97484.25;4934584;29;20404;-72
2020/12/27 10:19:50;;;;;;;20.20;11.13;;;;;;;2.33;61.39;97473.94;4934566;29;20035;-72
2020/12/27 10:22:16;;;;;;;15.32;7.68;;;;;;;2.41;59.24;97467.06;4932625;29;20170;-71
2020/12/27 10:24:42;;;;;;;14.00;7.70;;;;;;;2.29;58.94;97443.28;4934768;29;20086;-72
2020/12/27 10:27:07;;;;;;;11.32;8.10;;;;;;;2.12;60.73;97439.13;4934328;29;20036;-72
2020/12/27 10:29:33;;;;;;;26.70;16.20;;;;;;;1.44;62.24;97429.25;4933701;29;20377;-72
2020/12/27 10:32:01;;;;;;;15.80;8.82;;;;;;;1.27;62.95;97431.88;4932868;29;20060;-72
2020/12/27 10:34:27;;;;;;;9.18;6.78;;;;;;;0.86;62.63;97419.22;4934232;29;20031;-71
2020/12/27 10:36:55;;;;;;;17.85;10.57;;;;;;;0.89;64.81;97408.19;4934095;29;20079;-74
2020/12/27 10:39:21;;;;;;;9.95;7.38;;;;;;;0.86;63.14;97403.06;4934245;29;20103;-74
2020/12/27 10:41:47;;;;;;;8.18;5.35;;;;;;;0.60;63.57;97386.13;4934137;29;20054;-74
2020/12/27 10:44:14;;;;;;;15.25;8.25;;;;;;;0.56;64.53;97364.03;4932989;29;20023;-74
2020/12/27 10:46:40;;;;;;;19.88;9.27;;;;;;;0.54;65.62;97355.56;4933985;29;20544;-74
2020/12/27 10:49:05;;;;;;;19.15;9.63;;;;;;;0.69;66.10;97347.03;4934041;29;20163;-74
2020/12/27 10:51:35;;;;;;;15.98;8.32;;;;;;;0.47;67.37;97328.38;4933600;29;20055;-72
2020/12/27 10:54:01;;;;;;;11.73;7.00;;;;;;;0.32;68.74;97330.97;4934242;29;20034;-72
2020/12/27 10:56:26;;;;;;;15.60;7.10;;;;;;;0.42;68.30;97336.03;4933946;29;20640;-71
2020/12/27 10:58:52;;;;;;;9.90;5.78;;;;;;;0.49;67.52;97331.78;4933963;29;20024;-72
2020/12/27 11:01:17;;;;;;;9.57;6.15;;;;;;;0.66;66.61;97327.50;4933727;29;20031;-74
2020/12/27 11:03:42;;;;;;;10.20;6.38;;;;;;;0.77;65.88;97315.59;4933937;29;20120;-72
2020/12/27 11:06:08;;;;;;;11.15;5.00;;;;;;;0.87;64.95;97310.44;4933791;29;20042;-72
2020/12/27 11:08:33;;;;;;;10.57;5.97;;;;;;;0.91;64.70;97304.47;4933787;29;20027;-72
2020/12/27 11:10:59;;;;;;;6.10;4.93;;;;;;;0.97;64.85;97294.28;4933887;29;20489;-72
2020/12/27 11:13:24;;;;;;;11.00;5.13;;;;;;;1.00;64.54;97278.94;4933876;29;20028;-72
2020/12/27 11:15:50;;;;;;;7.30;4.97;;;;;;;0.82;64.75;97264.56;4933890;29;20031;-72
2020/12/27 11:18:15;;;;;;;5.22;4.72;;;;;;;0.79;64.41;97263.75;4933664;29;20381;-72
2020/12/27 11:20:40;;;;;;;6.70;4.53;;;;;;;0.76;64.20;97250.16;4928537;29;20437;-72
2020/12/27 11:23:06;;;;;;;9.90;5.05;;;;;;;0.75;64.40;97238.25;4931018;29;20024;-72
2020/12/27 11:25:31;;;;;;;9.43;5.97;;;;;;;0.84;65.71;97227.19;4933446;29;20020;-73
2020/12/27 11:27:56;;;;;;;7.32;4.85;;;;;;;0.97;65.68;97222.88;4933402;29;20091;-73
2020/12/27 11:30:22;;;;;;;7.88;4.25;;;;;;;0.80;65.58;97206.81;4933320;29;20031;-73
2020/12/27 11:32:47;;;;;;;6.80;4.68;;;;;;;0.89;65.75;97211.88;4935257;29;20028;-72
2020/12/27 11:35:13;;;;;;;10.07;5.47;;;;;;;0.96;65.03;97195.66;4937164;29;20024;-72
2020/12/27 11:37:38;;;;;;;8.02;5.53;;;;;;;1.08;64.95;97180.31;4937266;29;20102;-73
2020/12/27 11:40:04;;;;;;;8.60;5.15;;;;;;;1.22;65.46;97177.66;4937079;29;20066;-73
2020/12/27 11:42:30;;;;;;;10.60;6.63;;;;;;;0.92;64.53;97163.38;4936945;29;20027;-73
2020/12/27 11:44:55;;;;;;;11.02;5.93;;;;;;;0.88;65.38;97146.44;4937290;29;20036;-73
2020/12/27 11:47:21;;;;;;;8.68;5.53;;;;;;;0.75;66.54;97136.31;4936164;29;20066;-72
2020/12/27 11:49:47;;;;;;;16.33;6.95;;;;;;;0.85;67.14;97121.81;4935843;29;20036;-73
2020/12/27 11:52:12;;;;;;;17.30;9.85;;;;;;;0.89;66.71;97108.19;4936794;29;20094;-73
2020/12/27 11:54:37;;;;;;;18.10;9.65;;;;;;;0.84;66.36;97104.81;4936881;29;20024;-72
2020/12/27 11:57:03;;;;;;;15.68;6.10;;;;;;;0.99;66.21;97103.88;4937058;29;20027;-72
2020/12/27 11:59:28;;;;;;;19.80;9.38;;;;;;;0.99;66.00;97096.22;4937011;29;20027;-72
2020/12/27 12:01:54;;;;;;;8.13;5.45;;;;;;;1.06;64.63;97080.00;4936550;29;20039;-72
2020/12/27 12:04:19;;;;;;;7.65;5.25;;;;;;;1.15;65.69;97077.38;4937049;29;20027;-73
2020/12/27 12:06:44;;;;;;;8.18;5.30;;;;;;;1.13;65.16;97055.31;4936773;29;20035;-72
2020/12/27 12:09:11;;;;;;;7.82;4.78;;;;;;;1.09;65.34;97039.19;4936238;29;20028;-72
2020/12/27 12:11:37;;;;;;;9.45;5.30;;;;;;;1.05;65.96;97032.41;4936515;29;20030;-72
2020/12/27 12:14:04;;;;;;;13.70;5.15;;;;;;;1.11;65.98;97021.31;4936844;29;20123;-72
2020/12/27 12:16:29;;;;;;;14.98;5.28;;;;;;;1.20;66.35;97018.66;4936384;29;20558;-72
2020/12/27 12:18:56;;;;;;;7.45;4.97;;;;;;;1.32;66.13;97005.81;4935364;29;20028;-73
2020/12/27 12:21:21;;;;;;;7.38;5.03;;;;;;;1.17;65.84;96999.16;4935835;29;20042;-73
2020/12/27 12:23:47;;;;;;;6.65;4.63;;;;;;;1.43;66.08;96988.69;4936276;29;20140;-73
2020/12/27 12:26:27;;;;;;;6.57;4.43;;;;;;;1.24;65.72;96995.66;4936674;29;20396;-73
2020/12/27 12:28:52;;;;;;;8.10;4.68;;;;;;;1.20;65.90;96981.25;4920924;29;20090;-72
2020/12/27 12:31:18;;;;;;;8.30;4.72;;;;;;;1.27;66.33;96970.16;4936358;29;20027;-73
2020/12/27 12:33:45;;;;;;;7.05;4.43;;;;;;;1.20;66.66;96960.84;4936100;29;20494;-73
2020/12/27 12:36:31;;;;;;;7.88;5.60;;;;;;;1.19;66.57;96953.22;4936348;29;20066;-72
2020/12/27 12:38:56;;;;;;;9.40;4.57;;;;;;;1.22;66.88;96945.56;4921490;29;20044;-72
2020/12/27 12:41:23;;;;;;;9.70;4.20;;;;;;;1.19;66.62;96938.75;4935917;29;20078;-72
2020/12/27 12:43:49;;;;;;;9.10;4.47;;;;;;;1.23;67.12;96940.44;4934927;29;20055;-72
2020/12/27 12:46:14;;;;;;;7.05;4.63;;;;;;;1.17;66.54;96932.00;4936190;29;20528;-72
2020/12/27 12:48:40;;;;;;;6.70;4.32;;;;;;;1.22;66.52;96918.34;4936040;29;20035;-72
2020/12/27 12:51:09;;;;;;;7.10;4.50;;;;;;;1.22;66.95;96913.22;4935984;29;20389;-72
2020/12/27 12:53:35;;;;;;;6.18;4.07;;;;;;;1.31;66.24;96901.25;4936191;29;20036;-72
2020/12/27 12:56:00;;;;;;;4.15;3.75;;;;;;;1.32;66.80;96902.94;4935957;29;20058;-73
2020/12/27 12:58:25;;;;;;;5.55;4.38;;;;;;;1.33;66.85;96894.41;4936287;29;20103;-72
2020/12/27 13:00:51;;;;;;;4.53;3.80;;;;;;;1.36;66.36;96881.63;4935898;29;20024;-72
2020/12/27 13:03:16;;;;;;;8.75;3.97;;;;;;;1.35;66.10;96872.25;4936211;29;20034;-72
2020/12/27 13:05:41;;;;;;;7.22;4.65;;;;;;;1.35;66.10;96862.88;4935957;29;20031;-72
2020/12/27 13:08:07;;;;;;;8.70;5.72;;;;;;;1.40;66.14;96862.84;4935902;29;20028;-72
2020/12/27 13:10:33;;;;;;;6.68;4.97;;;;;;;1.45;66.16;96848.31;4934435;29;20027;-72
2020/12/27 13:12:59;;;;;;;10.32;4.78;;;;;;;1.46;66.25;96835.56;4935776;29;20362;-72
2020/12/27 13:15:25;;;;;;;6.95;4.50;;;;;;;1.45;66.21;96820.25;4935616;29;20034;-72
2020/12/27 13:17:50;;;;;;;10.13;4.65;;;;;;;1.46;66.48;96819.41;4935713;29;20023;-72
2020/12/27 13:20:16;;;;;;;7.32;4.57;;;;;;;1.46;66.55;96815.13;4935523;29;20034;-72
2020/12/27 13:22:41;;;;;;;6.22;4.25;;;;;;;1.46;65.99;96804.09;4935539;29;20048;-72
2020/12/27 13:25:06;;;;;;;8.48;4.50;;;;;;;1.46;66.29;96789.63;4935642;29;20469;-72
2020/12/27 13:27:32;;;;;;;6.78;4.13;;;;;;;1.50;66.32;96780.22;4935452;29;20035;-72
2020/12/27 13:29:57;;;;;;;6.20;4.32;;;;;;;1.48;66.26;96780.22;4935350;29;20042;-72
2020/12/27 13:32:23;;;;;;;6.65;4.18;;;;;;;1.47;66.52;96754.75;4935186;29;20386;-72
2020/12/27 13:34:48;;;;;;;5.80;4.03;;;;;;;1.50;65.91;96759.81;4935472;29;20106;-72
2020/12/27 13:37:14;;;;;;;7.53;4.22;;;;;;;1.47;66.15;96744.53;4935309;29;20032;-72
2020/12/27 13:39:41;;;;;;;7.00;4.00;;;;;;;1.46;65.96;96748.81;4934108;29;20027;-72
2020/12/27 13:42:07;;;;;;;5.53;3.83;;;;;;;1.49;65.93;96750.44;4934937;29;20031;-72
2020/12/27 13:44:32;;;;;;;5.45;4.10;;;;;;;1.46;66.54;96737.75;4935235;29;20020;-72
2020/12/27 13:46:57;;;;;;;11.55;4.20;;;;;;;1.54;66.41;96738.47;4935092;29;20477;-72
2020/12/27 13:49:25;;;;;;;9.20;4.10;;;;;;;1.49;66.18;96732.59;4935078;29;20119;-72
2020/12/27 13:51:54;;;;;;;6.38;4.05;;;;;;;1.53;65.95;96735.06;4934815;29;20086;-74
2020/12/27 13:54:19;;;;;;;8.20;4.20;;;;;;;1.52;66.03;96730.00;4935063;29;20569;-74
2020/12/27 13:56:44;;;;;;;5.07;3.90;;;;;;;1.49;66.15;96725.78;4934803;29;20118;-74
2020/12/27 13:59:10;;;;;;;4.60;3.42;;;;;;;1.54;66.12;96725.69;4934915;29;20149;-74
2020/12/27 14:01:35;;;;;;;5.88;4.20;;;;;;;1.54;66.09;96730.81;4934516;29;20512;-74
2020/12/27 14:04:00;;;;;;;5.30;4.28;;;;;;;1.57;65.72;96720.56;4934957;29;20031;-74
2020/12/27 14:06:27;;;;;;;5.15;4.10;;;;;;;1.54;65.72;96725.69;4934786;29;20054;-74
2020/12/27 14:08:53;;;;;;;10.52;5.03;;;;;;;1.46;67.21;96717.34;4934785;29;20032;-74
2020/12/27 14:11:19;;;;;;;5.47;4.05;;;;;;;1.47;66.09;96701.16;4934586;29;20114;-74
2020/12/27 14:13:44;;;;;;;5.97;4.28;;;;;;;1.43;65.80;96694.41;4934715;29;20111;-74
2020/12/27 14:16:13;;;;;;;6.57;4.30;;;;;;;1.40;66.34;96692.78;4934969;29;20358;-71
2020/12/27 14:18:39;;;;;;;9.00;5.50;;;;;;;1.37;66.45;96686.88;4934609;29;20038;-71
2020/12/27 14:21:04;;;;;;;13.38;4.85;;;;;;;1.36;66.45;96674.97;4934515;29;20036;-71
2020/12/27 14:23:30;;;;;;;7.78;5.03;;;;;;;1.26;66.63;96672.56;4933249;29;20445;-72
2020/12/27 14:25:55;;;;;;;11.93;5.30;;;;;;;1.24;67.00;96661.53;4934570;29;20549;-72
2020/12/27 14:28:20;;;;;;;5.40;3.78;;;;;;;1.27;66.23;96651.28;4934236;29;20040;-72
2020/12/27 14:30:46;;;;;;;6.15;3.92;;;;;;;1.19;66.06;96637.81;4934128;29;20028;-71
2020/12/27 14:33:11;;;;;;;6.60;4.47;;;;;;;1.27;66.58;96630.88;4934483;29;20397;-72
2020/12/27 14:35:36;;;;;;;5.68;3.97;;;;;;;1.25;66.00;96635.16;4934436;29;20023;-73
2020/12/27 14:38:02;;;;;;;6.30;4.60;;;;;;;1.24;66.46;96625.81;4934263;29;20140;-72
2020/12/27 14:40:27;;;;;;;7.80;4.32;;;;;;;1.24;66.76;96628.38;4934311;29;20069;-72
2020/12/27 14:42:52;;;;;;;6.45;4.90;;;;;;;1.19;66.55;96614.03;4934052;29;20054;-72
2020/12/27 14:45:17;;;;;;;5.97;4.03;;;;;;;1.19;66.73;96617.41;4934236;29;20477;-72
2020/12/27 14:47:43;;;;;;;7.15;4.63;;;;;;;1.19;66.34;96607.19;4934038;29;20036;-72
2020/12/27 14:50:08;;;;;;;5.03;4.25;;;;;;;1.21;66.51;96602.94;4934123;29;20027;-72
2020/12/27 14:52:33;;;;;;;6.68;4.45;;;;;;;1.25;65.74;96580.75;4933847;29;20035;-72
2020/12/27 14:54:59;;;;;;;6.55;3.97;;;;;;;1.24;66.19;96585.00;4934262;29;20024;-72
2020/12/27 14:57:24;;;;;;;6.40;4.35;;;;;;;1.21;66.29;96571.47;4934204;29;20070;-73
2020/12/27 14:59:49;;;;;;;7.88;4.28;;;;;;;1.17;67.18;96565.59;4934211;29;20508;-72
2020/12/27 15:02:14;;;;;;;8.15;4.18;;;;;;;1.32;65.62;96558.56;4933728;29;20535;-72
2020/12/27 15:04:40;;;;;;;7.78;4.18;;;;;;;1.36;66.11;96537.22;4933842;29;20035;-72
2020/12/27 15:07:05;;;;;;;7.47;4.15;;;;;;;1.35;65.54;96525.31;4933379;29;20090;-72
2020/12/27 15:09:30;;;;;;;4.72;3.97;;;;;;;1.36;65.24;96527.03;4932544;29;20031;-72
2020/12/27 15:11:56;;;;;;;7.72;4.35;;;;;;;1.32;65.87;96530.50;4933659;29;20024;-72
2020/12/27 15:14:21;;;;;;;8.23;4.57;;;;;;;1.32;65.76;96525.38;4933914;29;20086;-72
2020/12/27 15:16:47;;;;;;;8.23;4.95;;;;;;;1.36;64.88;96512.56;4933914;29;20401;-72
2020/12/27 15:19:12;;;;;;;6.00;3.35;;;;;;;1.37;65.51;96503.19;4933744;29;20071;-72
2020/12/27 15:21:37;;;;;;;23.05;8.52;;;;;;;1.51;64.09;96485.91;4933578;29;20075;-72
2020/12/27 15:24:03;;;;;;;9.13;4.85;;;;;;;1.44;64.40;96489.44;4933605;29;20035;-72
2020/12/27 15:26:28;;;;;;;7.53;4.00;;;;;;;1.52;63.09;96487.59;4932500;29;20031;-72
2020/12/27 15:28:53;;;;;;;5.15;3.78;;;;;;;1.52;63.23;96472.28;4933519;29;20040;-72
2020/12/27 15:31:19;;;;;;;5.97;3.90;;;;;;;1.50;62.98;96463.81;4933610;29;20131;-72
2020/12/27 15:33:44;;;;;;;9.93;3.50;;;;;;;1.51;63.33;96451.03;4933823;29;20035;-72
2020/12/27 15:36:10;;;;;;;5.68;4.00;;;;;;;1.47;63.37;96443.47;4933800;29;20031;-72
2020/12/27 15:38:36;;;;;;;6.55;4.05;;;;;;;1.43;64.13;96441.84;4933600;29;20111;-72
2020/12/27 15:41:02;;;;;;;8.13;4.22;;;;;;;1.35;64.52;96424.13;4933463;29;20416;-73
2020/12/27 15:43:27;;;;;;;8.07;4.57;;;;;;;1.29;64.62;96417.44;4933456;29;20099;-72
2020/12/27 15:45:52;;;;;;;9.57;5.05;;;;;;;1.20;65.65;96409.13;4933626;29;20541;-72
2020/12/27 15:48:18;;;;;;;9.30;4.82;;;;;;;1.17;66.00;96399.84;4933577;29;20035;-72
2020/12/27 15:50:44;;;;;;;9.27;5.40;;;;;;;1.10;67.70;96392.31;4933314;29;20038;-72
2020/12/27 15:53:09;;;;;;;10.00;5.30;;;;;;;1.11;66.69;96378.69;4933463;29;20027;-72
2020/12/27 15:55:35;;;;;;;9.88;6.13;;;;;;;1.02;67.35;96364.44;4933379;29;20110;-72
2020/12/27 15:58:04;;;;;;;16.33;8.93;;;;;;;0.98;67.07;96367.91;4933435;29;20031;-72
2020/12/27 16:00:30;;;;;;;18.67;9.38;;;;;;;0.98;67.25;96362.81;4933304;29;20530;-72
2020/12/27 16:02:55;;;;;;;14.27;6.70;;;;;;;1.04;66.32;96347.38;4933377;29;20115;-73
2020/12/27 16:05:20;;;;;;;10.15;5.75;;;;;;;1.08;65.30;96349.00;4933382;29;20032;-71
2020/12/27 16:07:46;;;;;;;10.07;5.72;;;;;;;1.09;64.84;96332.84;4933407;29;20032;-72
2020/12/27 16:10:11;;;;;;;8.52;5.40;;;;;;;1.21;63.19;96309.66;4933184;29;20433;-72
2020/12/27 16:12:36;;;;;;;6.53;4.75;;;;;;;1.28;62.49;96308.63;4933166;29;20472;-72
2020/12/27 16:15:04;;;;;;;8.73;4.40;;;;;;;1.33;62.14;96297.50;4933418;29;20029;-72
2020/12/27 16:17:30;;;;;;;8.20;4.15;;;;;;;1.27;62.40;96289.09;4933420;29;20028;-72
2020/12/27 16:19:55;;;;;;;7.32;4.68;;;;;;;1.29;62.20;96289.91;4936863;29;20539;-72
2020/12/27 16:22:21;;;;;;;11.98;5.60;;;;;;;1.32;62.80;96285.63;4935371;29;20114;-72
2020/12/27 16:24:46;;;;;;;10.27;5.22;;;;;;;1.34;62.59;96271.13;4936626;29;20072;-71
2020/12/27 16:27:12;;;;;;;6.82;4.40;;;;;;;1.39;61.58;96270.13;4936647;29;20078;-71
2020/12/27 16:29:37;;;;;;;7.30;4.72;;;;;;;1.45;61.04;96267.47;4936610;29;20024;-72
2020/12/27 16:32:09;;;;;;;10.55;4.07;;;;;;;1.50;60.58;96252.88;4936528;29;20023;-72
2020/12/27 16:34:34;;;;;;;7.53;4.10;;;;;;;1.63;59.67;96235.56;4936562;29;20046;-72
2020/12/27 16:36:59;;;;;;;5.55;4.03;;;;;;;1.72;59.17;96248.09;4936501;29;20024;-72
2020/12/27 16:39:25;;;;;;;6.85;3.90;;;;;;;1.82;59.37;96225.75;4936455;29;20023;-72
2020/12/27 16:41:50;;;;;;;11.35;4.30;;;;;;;1.78;59.27;96209.66;4936097;29;20489;-72
2020/12/27 16:44:15;;;;;;;5.05;4.20;;;;;;;1.87;59.11;96197.53;4936440;29;20460;-73
2020/12/27 16:46:41;;;;;;;10.35;3.85;;;;;;;1.86;58.63;96186.50;4936333;29;20034;-72
2020/12/27 16:49:06;;;;;;;10.40;4.63;;;;;;;1.90;58.81;96187.28;4936382;29;20120;-72
2020/12/27 16:51:31;;;;;;;4.82;3.78;;;;;;;1.91;58.76;96184.66;4936329;29;20109;-72
2020/12/27 16:53:57;;;;;;;6.82;4.18;;;;;;;1.99;58.10;96171.72;4936223;29;20095;-72
2020/12/27 16:56:25;;;;;;;6.45;3.80;;;;;;;2.11;57.25;96176.47;4936035;29;20363;-72
2020/12/27 16:58:51;;;;;;;8.98;3.90;;;;;;;2.20;56.18;96158.34;4936326;29;20023;-71
2020/12/27 17:01:16;;;;;;;10.35;4.38;;;;;;;2.13;57.45;96154.31;4935657;29;20544;-72
2020/12/27 17:03:42;;;;;;;7.30;4.43;;;;;;;2.15;57.18;96137.22;4936219;29;20028;-72
2020/12/27 17:06:12;;;;;;;8.00;4.40;;;;;;;2.25;57.24;96143.75;4936012;29;20031;-72
2020/12/27 17:08:42;;;;;;;9.45;4.63;;;;;;;2.42;55.23;96129.63;4935885;29;20059;-72
2020/12/27 17:11:07;;;;;;;5.07;3.00;;;;;;;2.53;54.53;96137.84;4935632;29;20047;-72
2020/12/27 17:13:32;;;;;;;5.10;3.88;;;;;;;2.58;54.49;96115.56;4935894;29;20039;-72
2020/12/27 17:15:58;;;;;;;7.50;4.47;;;;;;;2.66;54.27;96111.06;4935735;29;20107;-71
2020/12/27 17:18:23;;;;;;;6.00;4.20;;;;;;;2.75;53.40;96112.47;4936277;29;20461;-71
2020/12/27 17:20:48;;;;;;;5.78;3.28;;;;;;;2.92;52.58;96105.16;4934386;29;20028;-71
2020/12/27 17:23:14;;;;;;;9.25;4.07;;;;;;;2.98;53.07;96110.06;4935773;29;20031;-71
2020/12/27 17:25:40;;;;;;;11.50;3.83;;;;;;;2.98;53.39;96099.84;4935821;29;20034;-72
2020/12/27 17:28:05;;;;;;;6.68;4.80;;;;;;;3.16;52.05;96087.34;4935537;29;20036;-71
2020/12/27 17:30:31;;;;;;;6.18;3.65;;;;;;;3.24;51.51;96081.13;4934942;29;20035;-72
2020/12/27 17:32:57;;;;;;;5.38;2.85;;;;;;;3.43;51.40;96070.25;4935296;29;20516;-72
2020/12/27 17:35:22;;;;;;;6.53;3.22;;;;;;;3.50;50.30;96076.84;4935538;29;20119;-72
2020/12/27 17:37:48;;;;;;;5.93;3.45;;;;;;;3.44;50.95;96072.78;4935300;29;20027;-72
2020/12/27 17:40:13;;;;;;;4.47;2.88;;;;;;;3.50;51.14;96066.59;4935287;29;20040;-71
2020/12/27 17:42:42;;;;;;;4.45;3.05;;;;;;;3.72;50.17;96062.41;4935078;29;20083;-72
2020/12/27 17:45:07;;;;;;;3.33;2.60;;;;;;;3.78;49.90;96049.41;4935375;29;20106;-71
2020/12/27 17:47:33;;;;;;;5.88;2.78;;;;;;;3.92;48.81;96048.09;4935281;29;20102;-72
2020/12/27 17:49:58;;;;;;;3.20;2.42;;;;;;;4.19;47.10;96036.81;4935267;29;20031;-72
2020/12/27 17:52:23;;;;;;;3.03;2.30;;;;;;;4.11;48.32;96043.97;4934747;29;20059;-72
2020/12/27 17:54:48;;;;;;;5.35;3.00;;;;;;;4.12;48.62;96040.50;4935206;29;20078;-72
2020/12/27 17:57:14;;;;;;;2.90;2.17;;;;;;;4.18;48.24;96030.03;4934920;29;20110;-72
2020/12/27 17:59:39;;;;;;;4.65;2.40;;;;;;;4.20;48.47;96019.72;4935049;29;20039;-72
2020/12/27 18:02:05;;;;;;;2.50;2.00;;;;;;;4.32;47.56;96017.53;4934611;29;20386;-72
2020/12/27 18:04:30;;;;;;;2.40;1.92;;;;;;;4.39;47.75;96018.97;4935009;29;20020;-72
2020/12/27 18:06:56;;;;;;;2.63;1.95;;;;;;;4.41;47.74;96015.53;4934831;29;20212;-72
2020/12/27 18:09:21;;;;;;;5.32;2.50;;;;;;;4.48;46.94;96006.69;4934766;29;20020;-72
2020/12/27 18:11:46;;;;;;;3.30;1.92;;;;;;;4.43;48.22;96009.44;4934522;29;20405;-72
2020/12/27 18:14:12;;;;;;;6.20;1.95;;;;;;;4.62;46.92;95987.31;4934903;29;20051;-72
2020/12/27 18:16:38;;;;;;;3.85;3.03;;;;;;;4.53;47.55;96004.78;4934898;29;20393;-72
2020/12/27 18:19:04;;;;;;;4.20;2.75;;;;;;;4.67;47.11;96002.50;4934618;29;20168;-72
2020/12/27 18:21:29;;;;;;;3.25;2.10;;;;;;;4.69;47.04;96000.75;4934388;29;20600;-72
2020/12/27 18:23:57;;;;;;;3.65;2.30;;;;;;;4.92;46.35;95996.41;4934562;29;20470;-72
2020/12/27 18:26:24;;;;;;;5.25;2.50;;;;;;;4.82;46.82;95970.28;4934731;29;20024;-72
2020/12/27 18:28:50;;;;;;;10.02;3.42;;;;;;;4.71;47.34;95982.72;4934344;29;20492;-72
2020/12/27 18:31:17;;;;;;;3.35;2.40;;;;;;;4.76;47.63;95976.50;4934375;29;20024;-72
2020/12/27 18:33:42;;;;;;;2.63;2.42;;;;;;;4.74;47.72;95973.19;4934346;29;20524;-72